This is the latest recevied weather packets stored in our database for station/object W6ZZY. If no packets are shown the sender has not sent any weather packets the latest 10 day(s).
| Time | Temp. | Humidity | Pressure | Rain* | Wind** | Luminosity | Snow |
|---|---|---|---|---|---|---|---|
| 1777722030 | 10.56° C | 97% | 1014.8 hPa | 0 mm | - | - | - |
| 1777716622 | 10.56° C | 97% | 1015.3 hPa | 0 mm | - | - | - |
| 1777710651 | 10.56° C | 98% | 1016 hPa | 0 mm | - | - | - |
| 1777709418 | 10.56° C | 98% | 1016 hPa | 0 mm | - | - | - |
| 1777708228 | 11.11° C | 98% | 1016.1 hPa | 0 mm | - | - | - |
| 1777700421 | 11.11° C | 96% | 1016.4 hPa | 0 mm | - | - | - |
| 1777698625 | 11.11° C | 96% | 1016.4 hPa | 0 mm | - | - | - |
| 1777695034 | 11.67° C | 95% | 1016.1 hPa | 0 mm | - | - | - |
| 1777690816 | 11.67° C | 93% | 1015.5 hPa | 0 mm | - | - | - |
| 1777687227 | 13.33° C | 88% | 1015.5 hPa | 0 mm | - | - | - |
| 1777686083 | 13.89° C | 85% | 1015.5 hPa | 0 mm | - | - | - |
| 1777680627 | 17.22° C | 75% | 1015.8 hPa | 0 mm | - | - | - |
| 1777678222 | 17.22° C | 77% | 1016.1 hPa | 0 mm | - | - | - |
| 1777676426 | 17.22° C | 75% | 1016.2 hPa | 0 mm | - | - | - |
| 1777674047 | 17.78° C | 74% | 1017 hPa | 0 mm | - | - | - |
| 1777673419 | 18.33° C | 73% | 1017.2 hPa | 0 mm | - | - | - |
| 1777671624 | 17.78° C | 74% | 1017.4 hPa | 0 mm | - | - | - |
| 1777671018 | 17.78° C | 74% | 1017.4 hPa | 0 mm | - | - | - |
| 1777670433 | 17.78° C | 75% | 1017.4 hPa | 0 mm | - | - | - |
| 1777669828 | 18.33° C | 74% | 1017.4 hPa | 0 mm | - | - | - |
| 1777667426 | 18.33° C | 73% | 1017.6 hPa | 0 mm | - | - | - |
| 1777662624 | 15° C | 84% | 1018.2 hPa | 0 mm | - | - | - |
| 1777659032 | 13.33° C | 90% | 1018.5 hPa | 0 mm | - | - | - |
| 1777656027 | 12.78° C | 92% | 1018.4 hPa | 0 mm | - | - | - |
| 1777655422 | 12.78° C | 92% | 1018.4 hPa | 0 mm | - | - | - |
* Rain latest hour (hover to see other rain measurements)
** Current wind speed in m/s (hover to see current wind gust speed)